Aviation Digital Data Service (ADDS)

Output produced by METARs form (2205 UTC 17 November 2018)
found at http://www.aviationweather.gov/metar/data/
 
KSAV 172153Z 09005KT 10SM SCT200 18/07 A3020 RMK AO2 SLP225 T01780072
KSAV 171721Z 1718/1818 VRB05KT P6SM SKC 
     FM180800 02003KT P6SM SCT025 
     FM181500 06006KT P6SM SCT030 BKN050
       
KSVN 172156Z AUTO 10007KT 10SM CLR 17/10 A3017 RMK AO2 SLP220 T01720101 FZRANO $
TAF KSVN 172100Z 1721/1903 VRB06KT 9999 SKC QNH3014INS 
     BECMG 1808/1809 03006KT 8000 BR SCT012 QNH3020INS 
     BECMG 1814/1815 04006KT 9999 NSW BKN020 QNH3018INS TX20/1721Z TN11/1812Z
       
KLHW 172156Z AUTO 00000KT 10SM CLR 17/11 A3018 RMK AO2 SLP223 T01710111 $
KTBR 172155Z AUTO 00000KT 10SM CLR 14/10 A3020 RMK AO2 T01440103
KVDI 172155Z AUTO 00000KT 10SM CLR 17/05 A3020 RMK AO2
KJYL 172155Z AUTO 00000KT 10SM CLR 16/10 A3021 RMK AO2 T01560097
KDBN 172155Z AUTO 00000KT 10SM CLR 15/09 A3022 RMK AO2
KJES 172200Z AUTO 00000KT 10SM CLR 17/08 A3020 RMK AO2
KSSI 172153Z AUTO 06007KT 10SM CLR 17/12 A3019 RMK AO2 SLP223 T01720117
KSSI 171722Z 1718/1818 07007KT P6SM SCT035 BKN250 
     FM180700 02007KT P6SM SCT015 BKN025 
     FM181200 04009KT P6SM VCSH SCT015 BKN025
       
KBQK 172155Z AUTO 07005KT 10SM CLR 17/10 A3020 RMK AO2
KAYS 172155Z AUTO 00000KT 10SM CLR 18/05 A3019 RMK AO2 T01810047
KHXD 172150Z 06003KT 10SM CLR 17/13 A3022